Nearby METAR Reports

 

KTAN - Taunton, Massachusetts, USA
Distance from station: W 5mi, 8km
Updated: 05/22/2019 11:52pm
Clear
Clear
 Wind from calm
Wind: Calm
Temperature: 50°F , 10°C
Dew Point: 45°F , 7°C
Humidity: 82%
Barometer: 30.26 inHg , 1024.7 hPa
Clouds: Clear
Visibility: 10 miles , 16 km
2019/05/23 03:52 KTAN 230352Z AUTO 00000KT 10SM CLR 10/07 A3026 RMK AO2 SLP248 T01000067
KPYM - Plymouth, Massachusetts, USA
Distance from station: ENE 10mi, 16km
Updated: 05/22/2019 11:52pm
Clear
Clear
 Wind from calm
Wind: Calm
Temperature: 50°F , 10°C
Dew Point: 43°F , 6°C
Humidity: 76%
Barometer: 30.26 inHg , 1024.7 hPa
Clouds: Clear
Visibility: 10 miles , 16 km
2019/05/23 03:52 KPYM 230352Z AUTO 00000KT 10SM CLR 10/06 A3026 RMK AO2 SLP247 T01000061
 
KEWB - New Bedford, Massachusetts, USA
Distance from station: S 14mi, 23km
Updated: 05/22/2019 11:53pm
Clear
Clear
 Wind from SW
Wind: SW 6 mph , 9 km/h
Temperature: 46°F , 8°C
Wind Chill: 43°F , 6°C
Dew Point: 43°F , 6°C
Humidity: 87%
Barometer: 30.26 inHg , 1024.7 hPa
Clouds: Clear
Visibility: 10 miles , 16 km
2019/05/23 03:53 KEWB 230353Z AUTO 23005KT 10SM CLR 08/06 A3026 RMK AO2 SLP247 T00830056
KGHG - Marshfield, Massachusetts, USA
Distance from station: NE 20mi, 31km
Updated: 05/23/2019 12:35am
Clear
Clear
 Wind from SW
Wind: SW 6 mph , 9 km/h
Temperature: 52°F , 11°C
Dew Point: 45°F , 7°C
Humidity: 77%
Barometer: 30.27 inHg , 1025.1 hPa
Clouds: Clear
Visibility: 10 miles , 16 km
2019/05/23 04:35 KGHG 230435Z AUTO 23005KT 10SM CLR 11/07 A3027 RMK AO2
 
KOWD - Norwood, Massachusetts, USA
Distance from station: NNW 24mi, 39km
Updated: 05/22/2019 11:53pm
Clear
Clear
 Wind from SSW
Wind: SSW 6 mph , 9 km/h
Temperature: 52°F , 11°C
Dew Point: 43°F , 6°C
Humidity: 72%
Barometer: 30.27 inHg , 1025.1 hPa
Clouds: Clear
Visibility: 10 miles , 16 km
2019/05/23 03:53 KOWD 230353Z AUTO 20005KT 10SM CLR 11/06 A3027 RMK AO2 SLP248 T01110056
KMQE - East Milton, Massachusetts, USA
Distance from station: NNW 25mi, 40km
Updated: 05/22/2019 11:56pm

 Wind from S
Wind: S 14 mph , 22 km/h
Temperature: 48°F , 9°C
Wind Chill: 42°F , 6°C
Dew Point: 43°F , 6°C
Humidity: 82%
Barometer: 30.24 inHg , 1024 hPa
2019/05/23 03:56 KMQE 230356Z AUTO 19012KT 09/06 A3024 RMK AO1 SLP253 T00940056
 
KFMH - Falmouth/Otis Ab, Massachusetts, USA
Distance from station: SE 27mi, 44km
Updated: 05/23/2019 12:35am
Mostly cloudy
Mostly cloudy
 Wind from SW
Wind: SW 5 mph , 7 km/h
Temperature: 48°F , 9°C
Wind Chill: 46°F , 8°C
Dew Point: 43°F , 6°C
Humidity: 82%
Barometer: 30.27 inHg , 1025.1 hPa
Clouds: Mostly cloudy
Visibility: 10 miles , 16 km
Cloud details: Mostly cloudy 10000 ft
2019/05/23 04:35 KFMH 230435Z AUTO 22004KT 10SM BKN100 09/06 A3027 RMK AO2
KPVD - Providence/Green, Rhode Island, USA
Distance from station: WSW 29mi, 47km
Updated: 05/22/2019 11:51pm
Partly cloudy
Partly cloudy
 Wind from S
Wind: S 5 mph , 7 km/h
Temperature: 52°F , 11°C
Dew Point: 45°F , 7°C
Humidity: 77%
Barometer: 30.27 inHg , 1025.1 hPa
Clouds: Partly cloudy
Visibility: 10 miles , 16 km
Cloud details: Few Clouds 22000 ft
Partly cloudy 25000 ft
2019/05/23 03:51 KPVD 230351Z 17004KT 10SM FEW220 SCT250 11/07 A3027 RMK AO2 SLP249 LAST T01060072
 
KSFZ - Pawtucket, Rhode Island, USA
Distance from station: W 30mi, 48km
Updated: 05/22/2019 11:56pm
Clear
Clear
 Wind from SSW
Wind: SSW 3 mph , 6 km/h
Temperature: 48°F , 9°C
Dew Point: 43°F , 6°C
Humidity: 82%
Barometer: 30.26 inHg , 1024.7 hPa
Clouds: Clear
Visibility: 10 miles , 16 km
2019/05/23 03:56 KSFZ 230356Z AUTO 21003KT 10SM CLR 09/06 A3026 RMK AO2 SLP194 T00890056
KUUU - Newport, Rhode Island, USA
Distance from station: SW 31mi, 50km
Updated: 05/22/2019 11:53pm
Clear
Clear
 Wind from S
Wind: S 8 mph , 13 km/h
Temperature: 52°F , 11°C
Dew Point: 43°F , 6°C
Humidity: 72%
Barometer: 30.27 inHg , 1025.1 hPa
Clouds: Clear
Visibility: 10 miles , 16 km
2019/05/23 03:53 KUUU 230353Z AUTO 19007KT 10SM CLR 11/06 A3027 RMK AO2 SLP248 T01060061
 
KOQU - N. Kingston/Quon, Rhode Island, USA
Distance from station: SW 32mi, 52km
Updated: 05/22/2019 10:50pm
NOT Current
Partly cloudy
Partly cloudy
 Wind from SSW
Wind: SSW 16 mph , 26 km/h
Temperature: 55°F , 13°C
Dew Point: 46°F , 8°C
Humidity: 72%
Barometer: 30.25 inHg , 1024.4 hPa
Clouds: Partly cloudy
Visibility: 10 miles , 16 km
Cloud details: Partly cloudy 25000 ft
2019/05/23 02:50 KOQU 230250Z 20014KT 10SM SCT250 13/08 A3025 RMK LAST
KBOS - Boston, Massachusetts, USA
Distance from station: N 33mi, 54km
Updated: 05/22/2019 11:54pm
Mostly cloudy
Mostly cloudy
 Wind from SSW
Wind: SSW 13 mph , 20 km/h
Temperature: 55°F , 13°C
Dew Point: 39°F , 4°C
Humidity: 55%
Barometer: 30.25 inHg , 1024.4 hPa
Clouds: Mostly cloudy
Visibility: 10 miles , 16 km
Cloud details: Partly cloudy 16000 ft
Mostly cloudy 18000 ft
2019/05/23 03:54 KBOS 230354Z 21011KT 10SM SCT160 BKN180 13/04 A3025 RMK AO2 SLP244 T01280039
 
KHYA - Hyannis, Massachusetts, USA
Distance from station: ESE 37mi, 59km
Updated: 05/22/2019 11:56pm
Clear
Clear
 Wind from SSW
Wind: SSW 6 mph , 9 km/h
Temperature: 54°F , 12°C
Dew Point: 43°F , 6°C
Humidity: 67%
Barometer: 30.26 inHg , 1024.7 hPa
Clouds: Clear
Visibility: 10 miles , 16 km
2019/05/23 03:56 KHYA 230356Z AUTO 20005KT 10SM CLR 12/06 A3026 RMK AO2 SLP246 T01170056
KMVY - Marthas Vineyard, Massachusetts, USA
Distance from station: SSE 37mi, 60km
Updated: 05/22/2019 11:53pm
Clear
Clear
 Wind from S
Wind: S 5 mph , 7 km/h
Temperature: 46°F , 8°C
Wind Chill: 44°F , 7°C
Dew Point: 43°F , 6°C
Humidity: 87%
Barometer: 30.27 inHg , 1025.1 hPa
Clouds: Clear
Visibility: 10 miles , 16 km
2019/05/23 03:53 KMVY 230353Z AUTO 17004KT 10SM CLR 08/06 A3027 RMK AO2 SLP249 T00830061
 
KPVC - Provincetown, Massachusetts, USA
Distance from station: ENE 38mi, 61km
Updated: 05/22/2019 11:56pm
Clear
Clear
 Wind from SSW
Wind: SSW 7 mph , 11 km/h
Temperature: 52°F , 11°C
Dew Point: 45°F , 7°C
Humidity: 77%
Barometer: 30.27 inHg , 1025.1 hPa
Clouds: Clear
Visibility: 10 miles , 16 km
2019/05/23 03:56 KPVC 230356Z AUTO 20006KT 10SM CLR 11/07 A3027 RMK AO2 SLP248 T01060072 PNO $
KBED - Bedford, Massachusetts, USA
Distance from station: NNW 44mi, 72km
Updated: 05/22/2019 11:56pm
Clear
Clear
 Wind from S
Wind: S 5 mph , 7 km/h
Temperature: 52°F , 11°C
Dew Point: 41°F , 5°C
Humidity: 67%
Barometer: 30.24 inHg , 1024 hPa
Clouds: Clear
Visibility: 10 miles , 16 km
2019/05/23 03:56 KBED 230356Z AUTO 17004KT 10SM CLR 11/05 A3024 RMK AO2 SLP253 T01110050
 
KBVY - Beverly, Massachusetts, USA
Distance from station: 0 48mi, 77km
Updated: 05/22/2019 11:53pm
Clear
Clear
 Wind from SSW
Wind: SSW 6 mph , 9 km/h
Temperature: 54°F , 12°C
Dew Point: 39°F , 4°C
Humidity: 58%
Barometer: 30.24 inHg , 1024 hPa
Clouds: Clear
Visibility: 10 miles , 16 km
2019/05/23 03:53 KBVY 230353Z AUTO 20005KT 10SM CLR 12/04 A3024 RMK AO2 SLP236 T01220044
KCQX - Chatham, Massachusetts, USA
Distance from station: ESE 49mi, 80km
Updated: 05/22/2019 11:52pm
Clear
Clear
 Wind from varies
Wind: varies 5 mph , 7 km/h
Temperature: 52°F , 11°C
Dew Point: 45°F , 7°C
Humidity: 77%
Barometer: 30.28 inHg , 1025.4 hPa
Clouds: Clear
Visibility: 10 miles , 16 km
2019/05/23 03:52 KCQX 230352Z AUTO VRB04KT 10SM CLR 11/07 A3028 RMK AO2 SLP254 T01060067